Time;durP1;ratioP1;P1;durP2;ratioP2;P2;SDS_P1;SDS_P2;PMS_P1;PMS_P2;Temp;Humidity;BMP_temperature;BMP_pressure;BME280_temperature;BME280_humidity;BME280_pressure;Samples;Min_cycle;Max_cycle;Signal;HPM_P1;HPM_P2
2023/01/29 00:02:21;;;;;;;60.53;33.10;;;-2.80;99.90;;;;;;2613734;54;20379;-76
2023/01/29 00:08:09;;;;;;;64.07;34.53;;;-2.70;99.90;;;;;;2616099;54;20378;-75
2023/01/29 00:13:57;;;;;;;46.93;29.73;;;-2.60;99.90;;;;;;2615577;54;20138;-74
2023/01/29 00:19:45;;;;;;;56.90;32.80;;;-2.80;99.90;;;;;;2614812;54;20122;-75
2023/01/29 00:25:33;;;;;;;55.37;32.00;;;-2.80;99.90;;;;;;2615557;54;20431;-75
2023/01/29 00:31:23;;;;;;;61.23;33.00;;;-2.80;99.90;;;;;;2615778;54;20139;-75
2023/01/29 00:37:10;;;;;;;52.57;31.17;;;-2.80;99.90;;;;;;2615951;54;20389;-74
2023/01/29 00:52:27;;;;;;;64.00;34.90;;;-3.00;99.90;;;;;;2616817;54;20382;-75
2023/01/29 00:58:20;;;;;;;55.03;34.70;;;-3.10;99.90;;;;;;2617683;54;21356;-76
2023/01/29 01:04:10;;;;;;;53.70;32.50;;;-3.40;99.90;;;;;;2617264;54;20383;-75
2023/01/29 01:16:17;;;;;;;62.50;35.17;;;-3.60;99.90;;;;;;2617719;54;20415;-76
2023/01/29 01:22:05;;;;;;;63.47;35.17;;;-3.30;99.90;;;;;;2618223;54;20382;-75
2023/01/29 01:27:54;;;;;;;61.37;32.10;;;-3.40;99.90;;;;;;2617776;54;20693;-74
2023/01/29 01:33:42;;;;;;;70.27;33.20;;;-3.10;99.90;;;;;;2617881;54;20459;-74
2023/01/29 01:39:29;;;;;;;64.63;35.40;;;-3.00;99.90;;;;;;2617502;54;20130;-76
2023/01/29 01:52:05;;;;;;;56.07;33.10;;;-3.00;99.90;;;;;;2615924;54;20383;-75
2023/01/29 02:01:27;;;;;;;71.20;33.37;;;-3.20;99.90;;;;;;2614781;54;20984;-75
2023/01/29 02:10:15;;;;;;;56.43;31.47;;;-3.40;99.90;;;;;;2614622;54;20370;-74
2023/01/29 02:16:02;;;;;;;54.73;32.10;;;-3.40;99.90;;;;;;2614530;54;20372;-74
2023/01/29 02:21:56;;;;;;;64.87;32.73;;;-3.60;99.90;;;;;;2615615;54;20130;-74
2023/01/29 02:27:47;;;;;;;60.43;32.83;;;-3.80;99.90;;;;;;2617465;54;20382;-75
2023/01/29 02:40:12;;;;;;;47.87;30.47;;;-3.80;99.90;;;;;;2618822;54;20926;-74
2023/01/29 02:46:03;;;;;;;58.77;34.67;;;-3.90;99.90;;;;;;2618265;54;20403;-78
2023/01/29 03:33:17;;;;;;;64.07;32.73;;;-3.00;99.90;;;;;;2612882;54;20364;-80
2023/01/29 03:39:07;;;;;;;64.03;32.67;;;-3.00;99.90;;;;;;2614560;54;20414;-77
2023/01/29 03:45:07;;;;;;;60.67;31.10;;;-3.20;99.90;;;;;;2614660;54;20391;-78
2023/01/29 03:55:10;;;;;;;58.23;31.13;;;-3.50;99.90;;;;;;2616376;54;20403;-79
2023/01/29 04:01:05;;;;;;;58.73;33.40;;;-3.70;99.90;;;;;;2615382;54;22328;-78
2023/01/29 04:06:57;;;;;;;54.63;32.60;;;-3.70;99.90;;;;;;2614792;54;20392;-77
2023/01/29 04:18:59;;;;;;;61.03;33.60;;;-3.40;99.90;;;;;;2614942;54;20358;-78
2023/01/29 04:24:48;;;;;;;62.47;32.20;;;-3.10;99.90;;;;;;2615395;54;20956;-78
2023/01/29 04:30:49;;;;;;;58.07;29.97;;;-2.80;99.90;;;;;;2615860;54;20399;-77
2023/01/29 04:43:08;;;;;;;65.47;34.17;;;-2.60;99.90;;;;;;2615697;54;20387;-77
2023/01/29 04:49:12;;;;;;;55.77;31.70;;;-2.30;99.90;;;;;;2616840;39;20791;-77
2023/01/29 05:01:37;;;;;;;53.57;30.30;;;-1.90;99.90;;;;;;2615634;54;20941;-75
2023/01/29 05:07:27;;;;;;;63.37;36.10;;;-1.80;99.90;;;;;;2616385;31;20835;-73
2023/01/29 05:13:17;;;;;;;53.87;26.93;;;-1.70;99.90;;;;;;2614798;54;20458;-76
2023/01/29 05:19:06;;;;;;;69.53;33.00;;;-1.60;99.90;;;;;;2615309;54;20499;-75
2023/01/29 05:24:54;;;;;;;60.13;32.83;;;-1.70;99.90;;;;;;2616088;39;20691;-78
2023/01/29 05:30:43;;;;;;;52.73;29.37;;;-1.50;99.90;;;;;;2617113;46;20169;-76
2023/01/29 05:36:31;;;;;;;57.07;30.93;;;-1.40;99.90;;;;;;2616386;54;20431;-74
2023/01/29 05:42:19;;;;;;;57.00;30.30;;;-1.30;99.90;;;;;;2616340;54;20150;-74
2023/01/29 05:48:07;;;;;;;56.40;29.03;;;-1.30;99.90;;;;;;2616178;54;20758;-75
2023/01/29 05:58:18;;;;;;;61.00;31.40;;;-1.40;99.90;;;;;;2614921;54;20980;-75
2023/01/29 06:04:05;;;;;;;50.37;25.50;;;-1.20;99.90;;;;;;2614268;46;20418;-75
2023/01/29 06:09:55;;;;;;;59.97;31.90;;;-1.20;99.90;;;;;;2615233;54;20247;-74
2023/01/29 06:15:42;;;;;;;51.77;28.20;;;-1.20;99.90;;;;;;2614695;39;20829;-74
2023/01/29 06:21:29;;;;;;;49.37;26.87;;;-1.10;99.90;;;;;;2613258;54;20161;-74
2023/01/29 06:27:16;;;;;;;61.33;31.90;;;-0.90;99.90;;;;;;2614856;54;20172;-74
2023/01/29 06:33:04;;;;;;;48.57;30.70;;;-0.90;99.90;;;;;;2616226;54;20146;-74
2023/01/29 06:38:52;;;;;;;28.83;17.90;;;-0.90;99.90;;;;;;2616347;54;20122;-74
2023/01/29 06:44:40;;;;;;;49.97;26.30;;;-0.90;99.90;;;;;;2615086;54;20146;-78
2023/01/29 06:50:28;;;;;;;51.83;29.60;;;-0.80;99.90;;;;;;2616236;39;20533;-78
2023/01/29 06:56:16;;;;;;;54.60;30.77;;;-0.90;99.90;;;;;;2615285;54;20178;-78
2023/01/29 07:02:03;;;;;;;61.43;33.10;;;-0.80;99.90;;;;;;2615628;54;20130;-76
2023/01/29 07:07:51;;;;;;;54.27;32.17;;;-0.80;99.90;;;;;;2614750;54;20122;-76
2023/01/29 07:13:39;;;;;;;45.93;26.80;;;-0.70;99.90;;;;;;2615210;54;20153;-77
2023/01/29 07:19:27;;;;;;;62.03;30.50;;;-0.60;99.90;;;;;;2616250;54;20130;-77
2023/01/29 07:25:15;;;;;;;59.93;32.00;;;-0.50;99.90;;;;;;2615152;31;20628;-77
2023/01/29 07:31:03;;;;;;;54.93;30.90;;;-0.60;99.90;;;;;;2616005;54;20258;-76
2023/01/29 07:36:55;;;;;;;66.17;33.87;;;-0.50;99.90;;;;;;2615267;39;20745;-76
2023/01/29 07:42:43;;;;;;;69.40;33.97;;;-0.30;99.90;;;;;;2613972;54;20411;-77
2023/01/29 07:48:31;;;;;;;57.93;32.27;;;-0.30;99.90;;;;;;2615267;54;20198;-74
2023/01/29 07:54:19;;;;;;;57.93;32.13;;;-0.20;99.90;;;;;;2614577;54;20423;-74
2023/01/29 08:00:09;;;;;;;56.70;31.90;;;-0.20;99.90;;;;;;2614559;54;20138;-74
2023/01/29 08:03:12;;;;;;;57.60;32.70;;;-0.10;99.90;;;;;;2614690;54;20416;-75
2023/01/29 08:05:38;;;;;;;55.90;34.60;;;-0.10;99.90;;;;;;2615720;54;20940;-75
2023/01/29 08:11:28;;;;;;;46.43;26.90;;;-0.10;99.90;;;;;;2615843;54;20379;-74
2023/01/29 08:17:19;;;;;;;53.27;28.70;;;0.00;99.90;;;;;;2615424;54;20392;-74
2023/01/29 08:23:14;;;;;;;47.67;27.53;;;0.00;99.90;;;;;;2615615;54;20905;-73
2023/01/29 08:29:01;;;;;;;52.97;30.10;;;0.00;99.90;;;;;;2615736;54;20472;-75
2023/01/29 08:34:49;;;;;;;52.80;31.90;;;0.00;99.90;;;;;;2615092;54;20202;-75
2023/01/29 08:40:37;;;;;;;55.53;29.70;;;0.10;99.90;;;;;;2615065;54;20316;-74
2023/01/29 08:46:25;;;;;;;52.27;30.27;;;0.10;99.90;;;;;;2614644;39;20519;-75
2023/01/29 08:52:12;;;;;;;56.07;34.00;;;0.10;99.90;;;;;;2615487;54;20679;-73
2023/01/29 08:58:16;;;;;;;61.43;31.97;;;0.10;99.90;;;;;;2613468;54;20267;-77
2023/01/29 09:04:03;;;;;;;41.00;25.10;;;0.20;99.90;;;;;;2613644;54;21361;-73
2023/01/29 09:09:51;;;;;;;56.00;37.10;;;0.40;99.90;;;;;;2613087;54;20134;-74
2023/01/29 09:15:38;;;;;;;62.80;34.80;;;0.50;99.90;;;;;;2614022;54;20118;-74
2023/01/29 09:24:46;;;;;;;48.57;27.97;;;0.60;99.90;;;;;;2614218;54;20407;-74
2023/01/29 09:30:36;;;;;;;56.10;35.50;;;0.70;99.90;;;;;;2613228;46;20184;-74
2023/01/29 09:36:23;;;;;;;48.87;28.53;;;0.70;99.90;;;;;;2615108;39;20768;-75
2023/01/29 09:53:11;;;;;;;44.57;26.60;;;0.80;99.90;;;;;;2613699;54;20496;-75
2023/01/29 10:02:20;;;;;;;42.23;25.50;;;0.90;99.90;;;;;;2614222;54;20559;-73
2023/01/29 10:08:22;;;;;;;54.47;31.40;;;0.90;99.90;;;;;;2614851;39;20602;-75
2023/01/29 10:39:35;;;;;;;47.83;29.07;;;1.60;99.90;;;;;;2615924;31;21041;-75
2023/01/29 11:02:20;;;;;;;40.50;26.97;;;1.60;99.90;;;;;;2615577;54;20362;-74
2023/01/29 11:08:18;;;;;;;44.53;27.40;;;1.60;99.90;;;;;;2615108;54;20520;-74
2023/01/29 11:20:29;;;;;;;37.03;25.43;;;1.80;99.90;;;;;;2615027;39;20768;-77
2023/01/29 11:26:21;;;;;;;40.40;24.60;;;1.70;99.90;;;;;;2613491;54;20417;-74
2023/01/29 11:38:30;;;;;;;34.67;22.50;;;1.80;99.90;;;;;;2615434;54;20382;-75
2023/01/29 11:44:20;;;;;;;46.97;27.07;;;1.90;99.90;;;;;;2615934;54;20150;-77
2023/01/29 11:56:45;;;;;;;46.20;27.00;;;1.80;99.90;;;;;;2615479;39;20468;-75
2023/01/29 12:02:42;;;;;;;49.70;30.10;;;1.70;99.90;;;;;;2615685;54;20438;-75
2023/01/29 12:05:49;;;;;;;40.30;24.30;;;1.70;99.90;;;;;;2613690;47;20443;-76
2023/01/29 12:11:37;;;;;;;34.83;22.03;;;1.80;99.90;;;;;;2614870;54;20381;-76
2023/01/29 12:17:28;;;;;;;46.20;31.20;;;1.70;99.90;;;;;;2614694;54;20378;-76
2023/01/29 12:23:29;;;;;;;48.47;27.93;;;1.90;99.90;;;;;;2614540;54;20475;-74
2023/01/29 12:39:15;;;;;;;42.70;27.90;;;2.00;99.90;;;;;;2614264;39;20742;-76
2023/01/29 12:45:09;;;;;;;42.80;26.97;;;2.00;99.90;;;;;;2613783;54;20383;-77
2023/01/29 12:54:59;;;;;;;37.37;25.23;;;2.00;99.90;;;;;;2613494;39;20833;-78
2023/01/29 13:00:53;;;;;;;29.30;19.40;;;2.00;99.90;;;;;;2612196;54;20411;-76
2023/01/29 13:06:48;;;;;;;32.70;19.73;;;2.00;99.90;;;;;;2614200;54;20378;-77
2023/01/29 13:12:39;;;;;;;39.90;24.00;;;2.00;99.90;;;;;;2613972;54;20410;-77
2023/01/29 13:24:50;;;;;;;44.97;26.93;;;1.90;99.90;;;;;;2613754;54;20399;-77
2023/01/29 13:30:38;;;;;;;40.50;26.47;;;2.00;99.90;;;;;;2612598;39;20749;-76
2023/01/29 13:36:28;;;;;;;44.70;29.13;;;2.00;99.90;;;;;;2615302;54;20399;-77
2023/01/29 13:46:03;;;;;;;49.97;30.53;;;1.90;99.90;;;;;;2614820;54;20414;-77
2023/01/29 13:48:33;;;;;;;42.53;27.87;;;2.00;99.90;;;;;;2614582;47;20936;-79
2023/01/29 13:54:25;;;;;;;45.57;28.00;;;1.90;99.90;;;;;;2616001;54;20418;-78
2023/01/29 14:00:19;;;;;;;46.70;27.70;;;1.80;99.90;;;;;;2613991;54;20430;-79
2023/01/29 14:06:07;;;;;;;43.30;25.80;;;1.80;99.90;;;;;;2615483;54;20437;-77
2023/01/29 14:11:55;;;;;;;45.00;27.17;;;1.80;99.90;;;;;;2615499;54;20414;-78
2023/01/29 14:17:58;;;;;;;38.10;25.40;;;1.90;99.90;;;;;;2614634;39;20555;-77
2023/01/29 14:23:48;;;;;;;43.53;28.10;;;1.80;99.90;;;;;;2615919;54;20438;-77
2023/01/29 14:29:40;;;;;;;47.93;30.63;;;1.90;99.90;;;;;;2615842;54;20463;-78
2023/01/29 14:35:33;;;;;;;32.93;20.30;;;1.90;99.90;;;;;;2615994;54;20423;-79
2023/01/29 14:41:26;;;;;;;43.03;27.00;;;1.90;99.90;;;;;;2615442;39;20774;-78
2023/01/29 14:47:22;;;;;;;38.63;25.83;;;1.90;99.90;;;;;;2615218;39;20816;-80
2023/01/29 15:02:58;;;;;;;47.23;29.60;;;1.90;99.90;;;;;;2614113;39;20816;-79
2023/01/29 15:18:55;;;;;;;51.07;30.73;;;1.90;99.90;;;;;;2613733;39;20548;-76
2023/01/29 15:24:45;;;;;;;40.93;27.90;;;1.90;99.90;;;;;;2615016;54;20398;-77
2023/01/29 15:30:34;;;;;;;47.83;26.63;;;1.90;99.90;;;;;;2615857;54;20426;-77
2023/01/29 15:36:25;;;;;;;43.90;25.93;;;1.90;99.90;;;;;;2616188;54;20375;-77
2023/01/29 15:42:22;;;;;;;45.87;28.00;;;1.90;99.90;;;;;;2615583;54;20789;-78
2023/01/29 15:48:17;;;;;;;40.03;28.27;;;1.90;99.90;;;;;;2613273;54;20511;-77
2023/01/29 15:54:09;;;;;;;44.50;26.90;;;2.00;99.90;;;;;;2614257;54;20382;-77
2023/01/29 16:03:24;;;;;;;34.37;20.43;;;2.10;99.90;;;;;;2613847;54;20370;-76
2023/01/29 16:09:18;;;;;;;42.30;26.30;;;2.10;99.90;;;;;;2613916;54;20470;-77
2023/01/29 16:15:12;;;;;;;36.67;19.57;;;2.00;99.90;;;;;;2614751;54;20421;-77
2023/01/29 16:21:05;;;;;;;39.83;26.70;;;2.10;99.90;;;;;;2615115;54;20475;-77
2023/01/29 16:26:59;;;;;;;37.80;22.63;;;2.10;99.90;;;;;;2615470;54;20426;-77
2023/01/29 16:32:48;;;;;;;43.97;25.90;;;2.10;99.90;;;;;;2614792;54;20456;-76
2023/01/29 16:38:36;;;;;;;36.83;18.07;;;2.10;99.90;;;;;;2615805;54;20410;-78
2023/01/29 16:44:34;;;;;;;39.43;22.50;;;2.20;99.90;;;;;;2614055;54;20456;-77
2023/01/29 16:50:37;;;;;;;37.63;27.10;;;2.20;99.90;;;;;;2615789;54;20386;-77
2023/01/29 16:56:29;;;;;;;36.07;23.90;;;2.20;99.90;;;;;;2616059;54;20379;-78
2023/01/29 17:02:32;;;;;;;34.10;22.20;;;2.30;99.90;;;;;;2614815;54;20358;-78
2023/01/29 17:14:37;;;;;;;42.70;24.50;;;2.30;99.90;;;;;;2615450;54;20411;-78
2023/01/29 17:20:25;;;;;;;33.70;22.83;;;2.30;99.90;;;;;;2615227;54;20872;-78
2023/01/29 17:26:13;;;;;;;37.73;22.30;;;2.40;99.90;;;;;;2616885;54;20146;-77
2023/01/29 17:32:01;;;;;;;36.77;22.20;;;2.40;99.90;;;;;;2616617;54;20393;-75
2023/01/29 17:37:48;;;;;;;33.83;22.07;;;2.40;99.90;;;;;;2617379;39;20573;-78
2023/01/29 17:43:36;;;;;;;37.73;23.20;;;2.40;99.90;;;;;;2615863;54;20250;-76
2023/01/29 17:49:26;;;;;;;27.77;18.87;;;2.40;99.90;;;;;;2614184;54;22318;-78
2023/01/29 17:55:13;;;;;;;34.57;20.90;;;2.40;99.90;;;;;;2615186;54;20955;-79
2023/01/29 18:04:21;;;;;;;16.43;14.03;;;2.40;99.90;;;;;;2614836;46;20431;-78
2023/01/29 18:10:16;;;;;;;38.13;25.27;;;2.40;99.90;;;;;;2615295;54;20210;-78
2023/01/29 18:13:34;;;;;;;37.87;24.07;;;2.40;99.90;;;;;;2615592;54;20395;-78
2023/01/29 18:19:29;;;;;;;33.50;20.20;;;2.40;99.90;;;;;;2615432;54;20415;-77
2023/01/29 18:25:17;;;;;;;31.67;21.00;;;2.40;99.90;;;;;;2616694;54;20392;-77
2023/01/29 18:31:05;;;;;;;44.63;28.67;;;2.40;99.90;;;;;;2616917;54;20387;-77
2023/01/29 18:36:53;;;;;;;19.10;13.20;;;2.40;99.90;;;;;;2616051;47;20142;-76
2023/01/29 18:42:41;;;;;;;27.03;16.60;;;2.50;99.90;;;;;;2616601;54;20215;-77
2023/01/29 18:48:29;;;;;;;30.73;21.40;;;2.50;99.90;;;;;;2616314;54;20402;-78
2023/01/29 18:54:19;;;;;;;34.17;21.73;;;2.50;99.90;;;;;;2616447;54;20122;-77
2023/01/29 19:00:08;;;;;;;27.90;19.17;;;2.50;99.90;;;;;;2616669;54;20499;-77
2023/01/29 19:06:00;;;;;;;36.33;24.17;;;2.50;99.90;;;;;;2615885;54;20941;-77
2023/01/29 19:09:06;;;;;;;41.43;25.00;;;2.50;99.90;;;;;;2615818;54;20407;-77
2023/01/29 19:11:32;;;;;;;43.13;23.00;;;2.50;99.90;;;;;;2615460;47;20399;-77
2023/01/29 19:17:20;;;;;;;40.40;21.87;;;2.30;99.90;;;;;;2616818;39;20661;-79
2023/01/29 19:23:08;;;;;;;32.67;20.40;;;2.30;99.90;;;;;;2616307;54;20210;-78
2023/01/29 19:28:56;;;;;;;37.07;24.97;;;2.40;99.90;;;;;;2616517;54;20366;-78
2023/01/29 19:34:44;;;;;;;42.47;25.53;;;2.50;99.90;;;;;;2616327;54;20157;-78
2023/01/29 19:40:32;;;;;;;31.93;22.10;;;2.60;99.90;;;;;;2616728;54;20366;-78
2023/01/29 19:46:20;;;;;;;22.97;15.97;;;2.60;99.90;;;;;;2615742;54;20130;-77
2023/01/29 19:52:13;;;;;;;33.70;20.27;;;2.60;99.90;;;;;;2616078;54;20668;-79
2023/01/29 19:58:02;;;;;;;28.57;19.10;;;2.60;99.90;;;;;;2616359;54;20380;-79
2023/01/29 20:03:50;;;;;;;26.07;16.07;;;2.70;99.90;;;;;;2615550;54;20399;-77
2023/01/29 20:13:37;;;;;;;25.33;16.30;;;2.60;99.90;;;;;;2616481;54;20362;-80
2023/01/29 20:19:25;;;;;;;30.07;18.57;;;2.60;99.90;;;;;;2615130;54;20419;-79
2023/01/29 20:25:13;;;;;;;28.40;17.33;;;2.60;99.90;;;;;;2615664;54;20139;-83
2023/01/29 20:31:01;;;;;;;27.60;16.63;;;2.70;99.90;;;;;;2616068;54;20366;-79
2023/01/29 20:36:49;;;;;;;39.30;20.00;;;2.70;99.90;;;;;;2614771;54;20170;-78
2023/01/29 20:42:37;;;;;;;34.87;16.30;;;2.60;99.90;;;;;;2616149;54;20130;-78
2023/01/29 20:48:25;;;;;;;23.50;15.77;;;2.50;99.90;;;;;;2616035;54;20390;-79
2023/01/29 20:54:13;;;;;;;24.90;13.77;;;2.50;99.90;;;;;;2615589;54;20392;-78
2023/01/29 21:00:01;;;;;;;33.13;20.70;;;2.50;99.90;;;;;;2615599;54;20423;-78
2023/01/29 21:05:49;;;;;;;32.43;21.60;;;2.50;99.90;;;;;;2615084;46;20419;-78
2023/01/29 21:09:06;;;;;;;32.87;20.40;;;2.50;99.90;;;;;;2615896;47;20439;-79
2023/01/29 21:11:32;;;;;;;22.00;12.90;;;2.60;99.90;;;;;;2616446;39;20828;-78
2023/01/29 21:14:56;;;;;;;35.33;20.40;;;2.60;99.90;;;;;;2614620;54;20407;-79
2023/01/29 21:20:43;;;;;;;33.50;19.83;;;2.70;99.90;;;;;;2613030;54;20382;-79
2023/01/29 21:26:31;;;;;;;29.23;16.37;;;2.70;99.90;;;;;;2614591;54;20122;-78
2023/01/29 21:32:18;;;;;;;29.97;22.33;;;2.70;99.90;;;;;;2617123;54;20130;-78
2023/01/29 21:38:06;;;;;;;25.97;17.40;;;2.70;99.90;;;;;;2617402;39;20505;-78
2023/01/29 21:43:54;;;;;;;30.83;18.60;;;2.90;99.90;;;;;;2617453;39;20527;-78
2023/01/29 21:49:43;;;;;;;36.07;19.47;;;2.90;99.90;;;;;;2617615;54;20150;-80
2023/01/29 21:55:31;;;;;;;33.83;21.93;;;3.00;99.90;;;;;;2618041;54;20380;-79
2023/01/29 22:01:19;;;;;;;38.43;19.40;;;3.10;99.90;;;;;;2617058;54;20419;-79
2023/01/29 22:07:08;;;;;;;23.17;15.90;;;3.20;99.90;;;;;;2616333;54;20126;-77
2023/01/29 22:16:18;;;;;;;48.33;20.80;;;3.40;99.90;;;;;;2616235;54;20426;-79
2023/01/29 22:22:06;;;;;;;32.00;20.00;;;3.40;99.90;;;;;;2614664;54;20431;-78
2023/01/29 22:27:54;;;;;;;27.50;18.50;;;3.40;99.90;;;;;;2614884;54;20382;-79
2023/01/29 22:33:42;;;;;;;38.40;18.70;;;3.40;99.90;;;;;;2616685;54;20166;-79
2023/01/29 22:39:30;;;;;;;33.80;19.03;;;3.40;99.90;;;;;;2616872;54;20138;-78
2023/01/29 22:52:08;;;;;;;33.83;18.73;;;3.40;99.90;;;;;;2615280;54;20412;-79
2023/01/29 22:57:56;;;;;;;38.23;20.07;;;3.50;99.90;;;;;;2616525;54;20383;-78
2023/01/29 23:03:43;;;;;;;28.73;18.50;;;3.50;99.90;;;;;;2613463;54;20133;-78
2023/01/29 23:09:31;;;;;;;32.67;22.03;;;3.50;99.90;;;;;;2616317;54;20122;-78
2023/01/29 23:18:47;;;;;;;41.67;22.67;;;3.50;99.90;;;;;;2615268;54;20395;-78
2023/01/29 23:24:35;;;;;;;31.63;19.10;;;3.40;99.90;;;;;;2616368;54;20944;-79
2023/01/29 23:30:23;;;;;;;39.33;21.70;;;3.50;99.90;;;;;;2616458;39;20677;-79
2023/01/29 23:36:11;;;;;;;26.33;14.00;;;3.50;99.90;;;;;;2614966;54;20138;-78
2023/01/29 23:41:59;;;;;;;25.30;15.10;;;3.60;99.90;;;;;;2615737;54;20981;-79
2023/01/29 23:47:47;;;;;;;36.13;18.60;;;3.70;99.90;;;;;;2615645;54;20391;-79
2023/01/29 23:53:35;;;;;;;32.33;17.53;;;3.70;99.90;;;;;;2616416;54;20159;-78
2023/01/29 23:59:27;;;;;;;23.80;15.97;;;3.70;99.90;;;;;;2616007;54;20150;-78
